Big Bear Station Historical Data
Daily Summary for January 25, 2019 Units:  Metric    English   Both
Next Day »
Daily Weekly Monthly Yearly Custom
  High: Low: Average:
Temperature: 10.6 °C -8 °C 0.6 °C
Dew Point: -5.4 °C -16 °C -9.8 °C
Humidity: 89% 17% 53%
Wind Speed: 15.1km/h 0km/h 3.4km/h
Wind Gust: -1607.7km/h - -
Wind- - WSW
Pressure: 800.5 hPa 798.1 hPa -
Precipitation: 0 mm    
Historical Graphs
 
 
Tabular Data for January 25, 2019
Time Temperature Dew Point Pressure Wind Wind Speed Wind Gust Humidity Rainfall Rate (Hourly)
00:06 -5.6 °C -8.7 °C 800.1 hPa Calm   -1607.7 km/h 79% 0 mm
00:22 -5.9 °C -8.8 °C 799.8 hPa Calm   -1607.7 km/h 80% 0 mm
00:37 -5.7 °C -8.4 °C 800.1 hPa Calm   -1607.7 km/h 81% 0 mm
00:52 -6 °C -10.1 °C 799.8 hPa Calm   -1607.7 km/h 73% 0 mm
01:07 -6 °C -9.4 °C 799.8 hPa Calm   -1607.7 km/h 77% 0 mm
01:23 -6.1 °C -9 °C 799.8 hPa Calm   -1607.7 km/h 80% 0 mm
01:38 -6.2 °C -8.3 °C 800.1 hPa Calm   -1607.7 km/h 85% 0 mm
01:53 -6.2 °C -8.5 °C 800.1 hPa Calm   -1607.7 km/h 84% 0 mm
02:08 -6.6 °C -9 °C 800.1 hPa Calm   -1607.7 km/h 83% 0 mm
02:23 -6.4 °C -9.3 °C 800.1 hPa Calm   -1607.7 km/h 80% 0 mm
02:39 -6.1 °C -10 °C 800.1 hPa Calm   -1607.7 km/h 74% 0 mm
02:54 -6.1 °C -9.5 °C 799.8 hPa Calm   -1607.7 km/h 77% 0 mm
03:09 -6.2 °C -10.3 °C 799.8 hPa Calm   -1607.7 km/h 73% 0 mm
03:24 -6.4 °C -10.4 °C 799.8 hPa Calm   -1607.7 km/h 73% 0 mm
03:39 -6.5 °C -9.6 °C 799.4 hPa Calm   -1607.7 km/h 79% 0 mm
03:55 -6.7 °C -9.9 °C 799.4 hPa Calm   -1607.7 km/h 78% 0 mm
04:10 -7 °C -10.3 °C 799.4 hPa Calm   -1607.7 km/h 77% 0 mm
04:25 -7.1 °C -9.7 °C 799.1 hPa Calm   -1607.7 km/h 82% 0 mm
04:40 -7.1 °C -9.5 °C 799.4 hPa Calm   -1607.7 km/h 83% 0 mm
04:55 -7.3 °C -9.2 °C 799.4 hPa Calm   -1607.7 km/h 86% 0 mm
05:11 -7.4 °C -9.2 °C 799.4 hPa Calm   -1607.7 km/h 87% 0 mm
05:26 -7.5 °C -9.3 °C 799.4 hPa Calm   -1607.7 km/h 87% 0 mm
05:41 -7.6 °C -9.4 °C 799.1 hPa Calm   -1607.7 km/h 87% 0 mm
05:56 -7.5 °C -9 °C 799.1 hPa Calm   -1607.7 km/h 89% 0 mm
06:11 -7.5 °C -9.3 °C 799.1 hPa Calm   -1607.7 km/h 87% 0 mm
06:27 -7.6 °C -9.6 °C 799.4 hPa Calm   -1607.7 km/h 86% 0 mm
06:42 -8 °C -10.4 °C 799.4 hPa Calm   -1607.7 km/h 83% 0 mm
06:57 -8 °C -10.6 °C 799.4 hPa Calm   -1607.7 km/h 82% 0 mm
07:12 -7.9 °C -9.8 °C 799.4 hPa Calm   -1607.7 km/h 86% 0 mm
07:27 -7.9 °C -9.9 °C 799.4 hPa Calm   -1607.7 km/h 85% 0 mm
07:43 -7.7 °C -9.5 °C 799.4 hPa Calm   -1607.7 km/h 87% 0 mm
07:58 -7.8 °C -9.7 °C 799.4 hPa Calm   -1607.7 km/h 86% 0 mm
08:13 -7.1 °C -9.2 °C 799.4 hPa Calm   -1607.7 km/h 85% 0 mm
08:28 -5.7 °C -9.3 °C 799.8 hPa Calm   -1607.7 km/h 76% 0 mm
08:44 -4.1 °C -7.9 °C 799.8 hPa Calm   -1607.7 km/h 75% 0 mm
08:59 -4.7 °C -7.7 °C 799.8 hPa Calm   -1607.7 km/h 80% 0 mm
09:14 -3.4 °C -7.2 °C 800.1 hPa Calm   -1607.7 km/h 75% 0 mm
09:29 -3.3 °C -7.3 °C 800.1 hPa Calm   -1607.7 km/h 74% 0 mm
09:44 -2.5 °C -6.7 °C 800.1 hPa Calm   -1607.7 km/h 73% 0 mm
10:00 -0.3 °C -6.1 °C 800.5 hPa Calm   -1607.7 km/h 65% 0 mm
10:15 1 °C -5.4 °C 800.5 hPa Calm   -1607.7 km/h 62% 0 mm
10:30 1.7 °C -5.9 °C 800.1 hPa Calm   -1607.7 km/h 57% 0 mm
10:45 4.2 °C -7.3 °C 800.1 hPa Calm   -1607.7 km/h 43% 0 mm
11:00 5.2 °C -8.7 °C 800.1 hPa Calm   -1607.7 km/h 36% 0 mm
11:16 7 °C -11.2 °C 799.8 hPa Calm   -1607.7 km/h 26% 0 mm
11:31 9.4 °C -12.5 °C 799.4 hPa Calm   -1607.7 km/h 20% 0 mm
11:46 9.3 °C -11.9 °C 799.4 hPa Calm   -1607.7 km/h 21% 0 mm
12:01 10.1 °C -11.3 °C 799.4 hPa NW 4.3 km/h -1607.7 km/h 21% 0 mm
12:16 10.1 °C -8.6 °C 799.1 hPa NNW 3.5 km/h -1607.7 km/h 26% 0 mm
12:32 10.6 °C -11.4 °C 799.1 hPa NW 5.1 km/h -1607.7 km/h 20% 0 mm
12:47 9.8 °C -7.9 °C 798.8 hPa NNW 4.3 km/h -1607.7 km/h 28% 0 mm
13:02 10.2 °C -7.5 °C 798.8 hPa NNW 6 km/h -1607.7 km/h 28% 0 mm
13:18 9.2 °C -7.1 °C 798.8 hPa WNW 6 km/h -1607.7 km/h 31% 0 mm
13:33 8.5 °C -7.3 °C 798.8 hPa NW 4.3 km/h -1607.7 km/h 32% 0 mm
13:49 8.7 °C -7.5 °C 798.8 hPa NW 6.8 km/h -1607.7 km/h 31% 0 mm
14:04 8.9 °C -8.7 °C 798.8 hPa Calm   -1607.7 km/h 28% 0 mm
14:19 8.9 °C -8.7 °C 798.8 hPa Calm   -1607.7 km/h 28% 0 mm
14:34 8.4 °C -7.8 °C 798.8 hPa NNW 6.8 km/h -1607.7 km/h 31% 0 mm
14:49 7.9 °C -10.9 °C 798.8 hPa NNW 6 km/h -1607.7 km/h 25% 0 mm
15:05 7.7 °C -14.5 °C 798.4 hPa North 5.1 km/h -1607.7 km/h 19% 0 mm
15:20 7.5 °C -14.7 °C 798.8 hPa Calm   -1607.7 km/h 19% 0 mm
15:35 7.5 °C -15.3 °C 798.8 hPa NW 4.3 km/h -1607.7 km/h 18% 0 mm
15:50 7.5 °C -16 °C 798.8 hPa NNE 7.6 km/h -1607.7 km/h 17% 0 mm
16:06 6.9 °C -12.8 °C 798.8 hPa NNE 2.7 km/h -1607.7 km/h 23% 0 mm
16:21 6.8 °C -15.3 °C 798.8 hPa NNW 6.8 km/h -1607.7 km/h 19% 0 mm
16:36 6.2 °C -13.4 °C 798.4 hPa NW 6 km/h -1607.7 km/h 23% 0 mm
16:51 4.7 °C -10.2 °C 798.4 hPa Calm   -1607.7 km/h 33% 0 mm
17:06 4 °C -10.1 °C 798.4 hPa Calm   -1607.7 km/h 35% 0 mm
17:22 3.3 °C -11.9 °C 798.4 hPa Calm   -1607.7 km/h 32% 0 mm
17:37 2.9 °C -12.2 °C 798.4 hPa SW 1.8 km/h -1607.7 km/h 32% 0 mm
17:52 2.7 °C -13.6 °C 798.1 hPa West 5.1 km/h -1607.7 km/h 29% 0 mm
18:07 3 °C -13.3 °C 798.4 hPa South 7.6 km/h -1607.7 km/h 29% 0 mm
18:23 3.6 °C -11.9 °C 798.4 hPa NW 7.6 km/h -1607.7 km/h 31% 0 mm
18:38 4 °C -10.8 °C 798.8 hPa NNW 11.7 km/h -1607.7 km/h 33% 0 mm
18:53 4.7 °C -10.2 °C 798.4 hPa NNW 14.3 km/h -1607.7 km/h 33% 0 mm
19:09 5 °C -11.2 °C 798.4 hPa NW 12.6 km/h -1607.7 km/h 30% 0 mm
19:24 4.6 °C -10.3 °C 798.4 hPa NNW 12.6 km/h -1607.7 km/h 33% 0 mm
19:39 4.6 °C -10.3 °C 798.8 hPa NW 15.1 km/h -1607.7 km/h 33% 0 mm
19:55 4.4 °C -10.5 °C 799.1 hPa NNE 10.9 km/h -1607.7 km/h 33% 0 mm
20:10 3.9 °C -9.8 °C 799.4 hPa West 4.3 km/h -1607.7 km/h 36% 0 mm
20:25 3.6 °C -10.8 °C 799.1 hPa North 7.6 km/h -1607.7 km/h 34% 0 mm
20:40 3.5 °C -10.6 °C 799.4 hPa NNW 7.6 km/h -1607.7 km/h 35% 0 mm
20:55 3.3 °C -10.4 °C 799.4 hPa West 11.7 km/h -1607.7 km/h 36% 0 mm
21:11 2.9 °C -10.1 °C 799.8 hPa NNE 9.3 km/h -1607.7 km/h 38% 0 mm
21:26 2.9 °C -9.4 °C 799.8 hPa ENE 6.8 km/h -1607.7 km/h 40% 0 mm
21:41 3.1 °C -9.2 °C 799.8 hPa NNE 8.5 km/h -1607.7 km/h 40% 0 mm
21:56 3.3 °C -9.1 °C 800.1 hPa WNW 6.8 km/h -1607.7 km/h 40% 0 mm
22:12 3.3 °C -9.1 °C 800.1 hPa NE 6 km/h -1607.7 km/h 40% 0 mm
22:27 3.4 °C -9.3 °C 800.1 hPa West 7.6 km/h -1607.7 km/h 39% 0 mm
22:42 3.3 °C -8.4 °C 799.8 hPa SE 9.3 km/h -1607.7 km/h 42% 0 mm
22:57 3.5 °C -8.8 °C 799.8 hPa NNW 15.1 km/h -1607.7 km/h 40% 0 mm
23:12 3.3 °C -8.7 °C 799.8 hPa West 10.1 km/h -1607.7 km/h 41% 0 mm
23:28 3.4 °C -8.6 °C 800.1 hPa North 11.7 km/h -1607.7 km/h 41% 0 mm
23:43 3.2 °C -8.8 °C 800.1 hPa South 6.8 km/h -1607.7 km/h 41% 0 mm
23:58 3.3 °C -8.7 °C 800.5 hPa SE 4.3 km/h -1607.7 km/h 41% 0 mm
Big Bear CA Weather